sensor_id;sensor_type;location;lat;lon;timestamp;P1;durP1;ratioP1;P2;durP2;ratioP2
25531;SDS011;13429;48.816;9.118;2024-03-22T00:00:19;23.05;;;15.35;;
25531;SDS011;13429;48.816;9.118;2024-03-22T00:02:45;28.15;;;16.70;;
25531;SDS011;13429;48.816;9.118;2024-03-22T00:05:10;20.17;;;13.82;;
25531;SDS011;13429;48.816;9.118;2024-03-22T00:07:36;18.00;;;12.20;;
25531;SDS011;13429;48.816;9.118;2024-03-22T00:10:03;17.98;;;13.70;;
25531;SDS011;13429;48.816;9.118;2024-03-22T00:12:30;20.60;;;13.10;;
25531;SDS011;13429;48.816;9.118;2024-03-22T00:14:56;19.48;;;13.80;;
25531;SDS011;13429;48.816;9.118;2024-03-22T00:17:22;20.20;;;14.60;;
25531;SDS011;13429;48.816;9.118;2024-03-22T00:19:47;19.55;;;14.10;;
25531;SDS011;13429;48.816;9.118;2024-03-22T00:22:13;22.88;;;13.77;;
25531;SDS011;13429;48.816;9.118;2024-03-22T00:24:39;16.98;;;11.95;;
25531;SDS011;13429;48.816;9.118;2024-03-22T00:27:05;19.80;;;13.20;;
25531;SDS011;13429;48.816;9.118;2024-03-22T00:29:31;19.35;;;12.68;;
25531;SDS011;13429;48.816;9.118;2024-03-22T00:31:56;26.15;;;15.13;;
25531;SDS011;13429;48.816;9.118;2024-03-22T00:34:22;20.45;;;13.98;;
25531;SDS011;13429;48.816;9.118;2024-03-22T00:36:47;20.17;;;15.05;;
25531;SDS011;13429;48.816;9.118;2024-03-22T00:39:13;19.98;;;13.40;;
25531;SDS011;13429;48.816;9.118;2024-03-22T00:41:41;14.75;;;11.38;;
25531;SDS011;13429;48.816;9.118;2024-03-22T00:44:06;13.05;;;9.10;;
25531;SDS011;13429;48.816;9.118;2024-03-22T00:46:32;14.80;;;10.38;;
25531;SDS011;13429;48.816;9.118;2024-03-22T00:48:58;18.30;;;10.60;;
25531;SDS011;13429;48.816;9.118;2024-03-22T00:51:23;17.75;;;11.85;;
25531;SDS011;13429;48.816;9.118;2024-03-22T00:53:50;14.65;;;10.63;;
25531;SDS011;13429;48.816;9.118;2024-03-22T00:56:16;13.35;;;9.82;;
25531;SDS011;13429;48.816;9.118;2024-03-22T00:58:41;15.10;;;11.15;;
25531;SDS011;13429;48.816;9.118;2024-03-22T01:01:07;13.85;;;10.45;;
25531;SDS011;13429;48.816;9.118;2024-03-22T01:03:33;13.68;;;9.95;;
25531;SDS011;13429;48.816;9.118;2024-03-22T01:05:58;18.73;;;11.02;;
25531;SDS011;13429;48.816;9.118;2024-03-22T01:08:24;16.30;;;11.45;;
25531;SDS011;13429;48.816;9.118;2024-03-22T01:10:50;18.50;;;12.27;;
25531;SDS011;13429;48.816;9.118;2024-03-22T01:13:16;19.50;;;12.75;;
25531;SDS011;13429;48.816;9.118;2024-03-22T01:15:42;19.20;;;13.52;;
25531;SDS011;13429;48.816;9.118;2024-03-22T01:18:08;15.93;;;11.88;;
25531;SDS011;13429;48.816;9.118;2024-03-22T01:20:33;18.02;;;13.07;;
25531;SDS011;13429;48.816;9.118;2024-03-22T01:22:59;20.00;;;14.13;;
25531;SDS011;13429;48.816;9.118;2024-03-22T01:25:26;21.08;;;13.80;;
25531;SDS011;13429;48.816;9.118;2024-03-22T01:27:52;19.05;;;13.27;;
25531;SDS011;13429;48.816;9.118;2024-03-22T01:30:17;23.52;;;14.60;;
25531;SDS011;13429;48.816;9.118;2024-03-22T01:32:43;18.55;;;13.38;;
25531;SDS011;13429;48.816;9.118;2024-03-22T01:35:09;22.52;;;14.20;;
25531;SDS011;13429;48.816;9.118;2024-03-22T01:37:34;19.95;;;13.80;;
25531;SDS011;13429;48.816;9.118;2024-03-22T01:40:00;19.65;;;11.57;;
25531;SDS011;13429;48.816;9.118;2024-03-22T01:42:26;18.70;;;12.38;;
25531;SDS011;13429;48.816;9.118;2024-03-22T01:44:52;16.30;;;11.80;;
25531;SDS011;13429;48.816;9.118;2024-03-22T01:47:17;15.57;;;12.00;;
25531;SDS011;13429;48.816;9.118;2024-03-22T01:49:43;20.05;;;11.73;;
25531;SDS011;13429;48.816;9.118;2024-03-22T01:52:09;22.10;;;12.90;;
25531;SDS011;13429;48.816;9.118;2024-03-22T01:54:35;14.80;;;10.13;;
25531;SDS011;13429;48.816;9.118;2024-03-22T01:57:01;13.20;;;10.30;;
25531;SDS011;13429;48.816;9.118;2024-03-22T01:59:27;17.15;;;12.27;;
25531;SDS011;13429;48.816;9.118;2024-03-22T02:01:54;15.73;;;10.85;;
25531;SDS011;13429;48.816;9.118;2024-03-22T02:04:19;16.02;;;11.13;;
25531;SDS011;13429;48.816;9.118;2024-03-22T02:06:45;15.35;;;11.15;;
25531;SDS011;13429;48.816;9.118;2024-03-22T02:09:11;18.65;;;12.07;;
25531;SDS011;13429;48.816;9.118;2024-03-22T02:11:37;19.88;;;13.65;;
25531;SDS011;13429;48.816;9.118;2024-03-22T02:14:04;18.67;;;13.70;;
25531;SDS011;13429;48.816;9.118;2024-03-22T02:16:30;23.23;;;12.35;;
25531;SDS011;13429;48.816;9.118;2024-03-22T02:18:55;18.77;;;12.02;;
25531;SDS011;13429;48.816;9.118;2024-03-22T02:21:21;17.05;;;11.88;;
25531;SDS011;13429;48.816;9.118;2024-03-22T02:23:47;19.00;;;11.38;;
25531;SDS011;13429;48.816;9.118;2024-03-22T02:26:12;17.92;;;11.77;;
25531;SDS011;13429;48.816;9.118;2024-03-22T02:28:38;19.85;;;12.52;;
25531;SDS011;13429;48.816;9.118;2024-03-22T02:31:04;20.98;;;12.57;;
25531;SDS011;13429;48.816;9.118;2024-03-22T02:33:30;17.35;;;12.55;;
25531;SDS011;13429;48.816;9.118;2024-03-22T02:35:56;22.10;;;13.68;;
25531;SDS011;13429;48.816;9.118;2024-03-22T02:38:22;17.35;;;12.73;;
25531;SDS011;13429;48.816;9.118;2024-03-22T02:40:48;22.60;;;13.88;;
25531;SDS011;13429;48.816;9.118;2024-03-22T02:43:15;21.35;;;14.60;;
25531;SDS011;13429;48.816;9.118;2024-03-22T02:45:43;23.77;;;13.93;;
25531;SDS011;13429;48.816;9.118;2024-03-22T02:48:09;17.95;;;12.07;;
25531;SDS011;13429;48.816;9.118;2024-03-22T02:50:35;19.92;;;13.48;;
25531;SDS011;13429;48.816;9.118;2024-03-22T02:53:02;24.90;;;14.82;;
25531;SDS011;13429;48.816;9.118;2024-03-22T02:55:28;18.88;;;12.77;;
25531;SDS011;13429;48.816;9.118;2024-03-22T02:57:55;21.48;;;14.40;;
25531;SDS011;13429;48.816;9.118;2024-03-22T03:00:22;20.90;;;13.63;;
25531;SDS011;13429;48.816;9.118;2024-03-22T03:02:48;24.10;;;14.48;;
25531;SDS011;13429;48.816;9.118;2024-03-22T03:05:14;18.98;;;13.00;;
25531;SDS011;13429;48.816;9.118;2024-03-22T03:07:40;20.73;;;12.90;;
25531;SDS011;13429;48.816;9.118;2024-03-22T03:10:06;23.55;;;14.40;;
25531;SDS011;13429;48.816;9.118;2024-03-22T03:12:32;22.30;;;14.73;;
25531;SDS011;13429;48.816;9.118;2024-03-22T03:14:57;19.90;;;13.90;;
25531;SDS011;13429;48.816;9.118;2024-03-22T03:17:23;17.20;;;12.35;;
25531;SDS011;13429;48.816;9.118;2024-03-22T03:19:49;18.63;;;12.32;;
25531;SDS011;13429;48.816;9.118;2024-03-22T03:22:14;16.00;;;12.05;;
25531;SDS011;13429;48.816;9.118;2024-03-22T03:24:40;19.75;;;11.75;;
25531;SDS011;13429;48.816;9.118;2024-03-22T03:27:06;21.50;;;12.95;;
25531;SDS011;13429;48.816;9.118;2024-03-22T03:29:32;21.48;;;13.60;;
25531;SDS011;13429;48.816;9.118;2024-03-22T03:31:57;20.08;;;13.40;;
25531;SDS011;13429;48.816;9.118;2024-03-22T03:34:23;23.60;;;15.25;;
25531;SDS011;13429;48.816;9.118;2024-03-22T03:36:49;20.13;;;13.27;;
25531;SDS011;13429;48.816;9.118;2024-03-22T03:39:14;20.85;;;12.55;;
25531;SDS011;13429;48.816;9.118;2024-03-22T03:41:40;21.20;;;14.07;;
25531;SDS011;13429;48.816;9.118;2024-03-22T03:44:05;19.45;;;13.20;;
25531;SDS011;13429;48.816;9.118;2024-03-22T03:46:31;19.20;;;12.75;;
25531;SDS011;13429;48.816;9.118;2024-03-22T03:48:57;23.88;;;14.55;;
25531;SDS011;13429;48.816;9.118;2024-03-22T03:51:22;22.08;;;14.68;;
25531;SDS011;13429;48.816;9.118;2024-03-22T03:53:48;23.60;;;14.27;;
25531;SDS011;13429;48.816;9.118;2024-03-22T03:56:13;20.63;;;14.77;;
25531;SDS011;13429;48.816;9.118;2024-03-22T03:58:39;22.73;;;14.73;;
25531;SDS011;13429;48.816;9.118;2024-03-22T04:01:08;25.20;;;14.40;;
25531;SDS011;13429;48.816;9.118;2024-03-22T04:03:34;20.35;;;14.32;;
25531;SDS011;13429;48.816;9.118;2024-03-22T04:06:00;19.33;;;12.93;;
25531;SDS011;13429;48.816;9.118;2024-03-22T04:08:26;24.25;;;15.50;;
25531;SDS011;13429;48.816;9.118;2024-03-22T04:10:53;17.40;;;12.40;;
25531;SDS011;13429;48.816;9.118;2024-03-22T04:13:21;23.23;;;14.90;;
25531;SDS011;13429;48.816;9.118;2024-03-22T04:15:46;21.65;;;14.25;;
25531;SDS011;13429;48.816;9.118;2024-03-22T04:18:12;19.20;;;13.30;;
25531;SDS011;13429;48.816;9.118;2024-03-22T04:20:38;22.58;;;13.43;;
25531;SDS011;13429;48.816;9.118;2024-03-22T04:23:03;19.20;;;12.27;;
25531;SDS011;13429;48.816;9.118;2024-03-22T04:25:29;20.77;;;14.10;;
25531;SDS011;13429;48.816;9.118;2024-03-22T04:27:54;17.73;;;12.73;;
25531;SDS011;13429;48.816;9.118;2024-03-22T04:30:20;19.02;;;13.18;;
25531;SDS011;13429;48.816;9.118;2024-03-22T04:32:46;20.55;;;13.98;;
25531;SDS011;13429;48.816;9.118;2024-03-22T04:35:12;24.08;;;13.63;;
25531;SDS011;13429;48.816;9.118;2024-03-22T04:37:38;18.35;;;12.82;;
25531;SDS011;13429;48.816;9.118;2024-03-22T04:40:04;18.20;;;12.68;;
25531;SDS011;13429;48.816;9.118;2024-03-22T04:42:30;16.50;;;11.57;;
25531;SDS011;13429;48.816;9.118;2024-03-22T04:44:56;19.00;;;13.07;;
25531;SDS011;13429;48.816;9.118;2024-03-22T04:47:22;18.92;;;12.60;;
25531;SDS011;13429;48.816;9.118;2024-03-22T04:49:48;18.67;;;12.35;;
25531;SDS011;13429;48.816;9.118;2024-03-22T04:52:14;15.98;;;11.23;;
25531;SDS011;13429;48.816;9.118;2024-03-22T04:54:39;16.63;;;11.48;;
25531;SDS011;13429;48.816;9.118;2024-03-22T04:57:05;16.35;;;10.95;;
25531;SDS011;13429;48.816;9.118;2024-03-22T04:59:30;14.15;;;10.20;;
25531;SDS011;13429;48.816;9.118;2024-03-22T05:01:56;15.20;;;10.98;;
25531;SDS011;13429;48.816;9.118;2024-03-22T05:04:22;16.55;;;11.60;;
25531;SDS011;13429;48.816;9.118;2024-03-22T05:06:47;16.75;;;11.55;;
25531;SDS011;13429;48.816;9.118;2024-03-22T05:09:13;21.95;;;12.10;;
25531;SDS011;13429;48.816;9.118;2024-03-22T05:11:38;16.05;;;11.25;;
25531;SDS011;13429;48.816;9.118;2024-03-22T05:14:04;20.80;;;13.20;;
25531;SDS011;13429;48.816;9.118;2024-03-22T05:16:30;16.90;;;11.88;;
25531;SDS011;13429;48.816;9.118;2024-03-22T05:18:55;17.33;;;12.32;;
25531;SDS011;13429;48.816;9.118;2024-03-22T05:21:21;15.90;;;10.30;;
25531;SDS011;13429;48.816;9.118;2024-03-22T05:23:46;16.33;;;11.30;;
25531;SDS011;13429;48.816;9.118;2024-03-22T05:26:12;16.83;;;10.63;;
25531;SDS011;13429;48.816;9.118;2024-03-22T05:28:38;14.05;;;10.38;;
25531;SDS011;13429;48.816;9.118;2024-03-22T05:31:03;13.93;;;10.57;;
25531;SDS011;13429;48.816;9.118;2024-03-22T05:33:29;13.35;;;10.32;;
25531;SDS011;13429;48.816;9.118;2024-03-22T05:35:55;15.10;;;10.02;;
25531;SDS011;13429;48.816;9.118;2024-03-22T05:38:20;15.23;;;10.02;;
25531;SDS011;13429;48.816;9.118;2024-03-22T05:40:46;14.45;;;9.48;;
25531;SDS011;13429;48.816;9.118;2024-03-22T05:43:12;15.40;;;11.30;;
25531;SDS011;13429;48.816;9.118;2024-03-22T05:45:39;19.45;;;12.13;;
25531;SDS011;13429;48.816;9.118;2024-03-22T05:48:04;18.00;;;12.15;;
25531;SDS011;13429;48.816;9.118;2024-03-22T05:50:31;16.67;;;12.20;;
25531;SDS011;13429;48.816;9.118;2024-03-22T05:52:56;16.50;;;11.68;;
25531;SDS011;13429;48.816;9.118;2024-03-22T05:55:22;14.15;;;10.68;;
25531;SDS011;13429;48.816;9.118;2024-03-22T05:57:48;17.08;;;12.13;;
25531;SDS011;13429;48.816;9.118;2024-03-22T06:00:14;17.05;;;11.32;;
25531;SDS011;13429;48.816;9.118;2024-03-22T06:02:40;16.85;;;10.93;;
25531;SDS011;13429;48.816;9.118;2024-03-22T06:05:05;17.63;;;10.57;;
25531;SDS011;13429;48.816;9.118;2024-03-22T06:07:31;17.70;;;12.05;;
25531;SDS011;13429;48.816;9.118;2024-03-22T06:10:05;16.38;;;12.10;;
25531;SDS011;13429;48.816;9.118;2024-03-22T06:12:31;17.83;;;12.95;;
25531;SDS011;13429;48.816;9.118;2024-03-22T06:14:57;15.55;;;10.65;;
25531;SDS011;13429;48.816;9.118;2024-03-22T06:17:22;14.38;;;11.48;;
25531;SDS011;13429;48.816;9.118;2024-03-22T06:19:48;18.90;;;11.98;;
25531;SDS011;13429;48.816;9.118;2024-03-22T06:22:14;17.15;;;12.55;;
25531;SDS011;13429;48.816;9.118;2024-03-22T06:24:39;17.33;;;11.30;;
25531;SDS011;13429;48.816;9.118;2024-03-22T06:27:05;20.10;;;15.27;;
25531;SDS011;13429;48.816;9.118;2024-03-22T06:29:32;19.55;;;13.82;;
25531;SDS011;13429;48.816;9.118;2024-03-22T06:31:57;18.55;;;12.23;;
25531;SDS011;13429;48.816;9.118;2024-03-22T06:34:23;17.58;;;12.52;;
25531;SDS011;13429;48.816;9.118;2024-03-22T06:36:49;18.17;;;12.90;;
25531;SDS011;13429;48.816;9.118;2024-03-22T06:39:15;19.13;;;13.05;;
25531;SDS011;13429;48.816;9.118;2024-03-22T06:41:41;18.23;;;13.55;;
25531;SDS011;13429;48.816;9.118;2024-03-22T06:44:07;18.75;;;14.25;;
25531;SDS011;13429;48.816;9.118;2024-03-22T06:46:36;16.90;;;13.40;;
25531;SDS011;13429;48.816;9.118;2024-03-22T06:49:02;18.98;;;13.52;;
25531;SDS011;13429;48.816;9.118;2024-03-22T06:51:28;17.52;;;13.63;;
25531;SDS011;13429;48.816;9.118;2024-03-22T06:53:53;17.70;;;12.23;;
25531;SDS011;13429;48.816;9.118;2024-03-22T06:56:19;18.15;;;13.15;;
25531;SDS011;13429;48.816;9.118;2024-03-22T06:58:45;20.77;;;14.82;;
25531;SDS011;13429;48.816;9.118;2024-03-22T07:01:10;19.48;;;14.55;;
25531;SDS011;13429;48.816;9.118;2024-03-22T07:03:37;21.13;;;13.77;;
25531;SDS011;13429;48.816;9.118;2024-03-22T07:06:03;18.33;;;13.95;;
25531;SDS011;13429;48.816;9.118;2024-03-22T07:08:31;17.90;;;11.32;;
25531;SDS011;13429;48.816;9.118;2024-03-22T07:10:56;19.90;;;14.07;;
25531;SDS011;13429;48.816;9.118;2024-03-22T07:13:22;18.23;;;13.00;;
25531;SDS011;13429;48.816;9.118;2024-03-22T07:15:48;17.17;;;12.48;;
25531;SDS011;13429;48.816;9.118;2024-03-22T07:18:14;16.08;;;12.18;;
25531;SDS011;13429;48.816;9.118;2024-03-22T07:20:40;19.40;;;12.75;;
25531;SDS011;13429;48.816;9.118;2024-03-22T07:23:06;22.27;;;12.48;;
25531;SDS011;13429;48.816;9.118;2024-03-22T07:25:32;14.93;;;11.57;;
25531;SDS011;13429;48.816;9.118;2024-03-22T07:27:58;16.42;;;10.57;;
25531;SDS011;13429;48.816;9.118;2024-03-22T07:30:24;15.95;;;10.65;;
25531;SDS011;13429;48.816;9.118;2024-03-22T07:32:49;16.13;;;10.80;;
25531;SDS011;13429;48.816;9.118;2024-03-22T07:35:15;14.68;;;9.98;;
25531;SDS011;13429;48.816;9.118;2024-03-22T07:37:41;19.60;;;12.13;;
25531;SDS011;13429;48.816;9.118;2024-03-22T07:40:07;15.07;;;10.93;;
25531;SDS011;13429;48.816;9.118;2024-03-22T07:42:32;15.70;;;10.00;;
25531;SDS011;13429;48.816;9.118;2024-03-22T07:44:58;17.60;;;11.60;;
25531;SDS011;13429;48.816;9.118;2024-03-22T07:47:24;13.75;;;10.32;;
25531;SDS011;13429;48.816;9.118;2024-03-22T07:49:50;13.25;;;9.73;;
25531;SDS011;13429;48.816;9.118;2024-03-22T07:52:16;12.65;;;9.13;;
25531;SDS011;13429;48.816;9.118;2024-03-22T07:54:41;13.32;;;9.10;;
25531;SDS011;13429;48.816;9.118;2024-03-22T07:57:07;14.30;;;9.93;;
25531;SDS011;13429;48.816;9.118;2024-03-22T07:59:33;14.23;;;8.70;;
25531;SDS011;13429;48.816;9.118;2024-03-22T08:01:59;12.77;;;8.02;;
25531;SDS011;13429;48.816;9.118;2024-03-22T08:04:25;10.57;;;7.55;;
25531;SDS011;13429;48.816;9.118;2024-03-22T08:06:51;12.43;;;9.35;;
25531;SDS011;13429;48.816;9.118;2024-03-22T08:09:17;11.95;;;7.63;;
25531;SDS011;13429;48.816;9.118;2024-03-22T08:11:43;11.38;;;7.00;;
25531;SDS011;13429;48.816;9.118;2024-03-22T08:14:09;9.23;;;7.47;;
25531;SDS011;13429;48.816;9.118;2024-03-22T08:16:35;9.43;;;7.22;;
25531;SDS011;13429;48.816;9.118;2024-03-22T08:19:01;9.35;;;7.13;;
25531;SDS011;13429;48.816;9.118;2024-03-22T08:21:26;11.23;;;7.25;;
25531;SDS011;13429;48.816;9.118;2024-03-22T08:23:52;9.35;;;7.03;;
25531;SDS011;13429;48.816;9.118;2024-03-22T08:26:18;10.65;;;7.00;;
25531;SDS011;13429;48.816;9.118;2024-03-22T08:28:44;10.38;;;6.90;;
25531;SDS011;13429;48.816;9.118;2024-03-22T08:31:11;10.68;;;7.00;;
25531;SDS011;13429;48.816;9.118;2024-03-22T08:33:37;10.93;;;6.90;;
25531;SDS011;13429;48.816;9.118;2024-03-22T08:36:03;11.95;;;6.60;;
25531;SDS011;13429;48.816;9.118;2024-03-22T08:38:28;12.90;;;7.15;;
25531;SDS011;13429;48.816;9.118;2024-03-22T08:40:54;9.65;;;6.32;;
25531;SDS011;13429;48.816;9.118;2024-03-22T08:43:20;7.78;;;5.93;;
25531;SDS011;13429;48.816;9.118;2024-03-22T08:45:52;9.15;;;6.45;;
25531;SDS011;13429;48.816;9.118;2024-03-22T08:48:18;11.25;;;6.57;;
25531;SDS011;13429;48.816;9.118;2024-03-22T08:50:44;9.20;;;6.78;;
25531;SDS011;13429;48.816;9.118;2024-03-22T08:53:10;10.38;;;5.80;;
25531;SDS011;13429;48.816;9.118;2024-03-22T08:55:35;7.30;;;5.43;;
25531;SDS011;13429;48.816;9.118;2024-03-22T08:58:01;8.65;;;5.82;;
25531;SDS011;13429;48.816;9.118;2024-03-22T09:00:28;11.65;;;6.70;;
25531;SDS011;13429;48.816;9.118;2024-03-22T09:02:54;8.55;;;6.45;;
25531;SDS011;13429;48.816;9.118;2024-03-22T09:05:20;6.93;;;5.20;;
25531;SDS011;13429;48.816;9.118;2024-03-22T09:07:46;11.55;;;6.18;;
25531;SDS011;13429;48.816;9.118;2024-03-22T09:10:13;9.95;;;5.70;;
25531;SDS011;13429;48.816;9.118;2024-03-22T09:12:39;11.18;;;5.43;;
25531;SDS011;13429;48.816;9.118;2024-03-22T09:15:05;7.55;;;5.82;;
25531;SDS011;13429;48.816;9.118;2024-03-22T09:17:32;8.57;;;6.45;;
25531;SDS011;13429;48.816;9.118;2024-03-22T09:19:58;9.00;;;6.13;;
25531;SDS011;13429;48.816;9.118;2024-03-22T09:22:23;11.38;;;6.32;;
25531;SDS011;13429;48.816;9.118;2024-03-22T09:24:49;12.02;;;8.35;;
25531;SDS011;13429;48.816;9.118;2024-03-22T09:27:15;10.60;;;7.20;;
25531;SDS011;13429;48.816;9.118;2024-03-22T09:29:41;8.07;;;5.68;;
25531;SDS011;13429;48.816;9.118;2024-03-22T09:32:08;11.07;;;5.50;;
25531;SDS011;13429;48.816;9.118;2024-03-22T09:34:34;8.23;;;4.13;;
25531;SDS011;13429;48.816;9.118;2024-03-22T09:37:00;8.70;;;5.15;;
25531;SDS011;13429;48.816;9.118;2024-03-22T09:39:25;8.60;;;5.60;;
25531;SDS011;13429;48.816;9.118;2024-03-22T09:41:52;6.68;;;4.43;;
25531;SDS011;13429;48.816;9.118;2024-03-22T09:44:19;8.43;;;5.00;;
25531;SDS011;13429;48.816;9.118;2024-03-22T09:46:50;7.25;;;4.72;;
25531;SDS011;13429;48.816;9.118;2024-03-22T09:49:16;8.93;;;4.90;;
25531;SDS011;13429;48.816;9.118;2024-03-22T09:51:43;9.25;;;5.50;;
25531;SDS011;13429;48.816;9.118;2024-03-22T09:54:09;8.95;;;5.15;;
25531;SDS011;13429;48.816;9.118;2024-03-22T09:56:37;7.45;;;4.03;;
25531;SDS011;13429;48.816;9.118;2024-03-22T09:59:04;8.63;;;4.90;;
25531;SDS011;13429;48.816;9.118;2024-03-22T10:01:32;7.78;;;5.13;;
25531;SDS011;13429;48.816;9.118;2024-03-22T10:03:59;10.27;;;4.60;;
25531;SDS011;13429;48.816;9.118;2024-03-22T10:06:25;6.07;;;4.85;;
25531;SDS011;13429;48.816;9.118;2024-03-22T10:08:51;6.85;;;4.97;;
25531;SDS011;13429;48.816;9.118;2024-03-22T10:11:17;7.93;;;4.88;;
25531;SDS011;13429;48.816;9.118;2024-03-22T10:13:43;10.18;;;5.32;;
25531;SDS011;13429;48.816;9.118;2024-03-22T10:16:09;8.30;;;4.35;;
25531;SDS011;13429;48.816;9.118;2024-03-22T10:18:35;9.63;;;4.35;;
25531;SDS011;13429;48.816;9.118;2024-03-22T10:21:02;10.98;;;4.28;;
25531;SDS011;13429;48.816;9.118;2024-03-22T10:23:29;8.73;;;4.60;;
25531;SDS011;13429;48.816;9.118;2024-03-22T10:26:01;5.55;;;4.35;;
25531;SDS011;13429;48.816;9.118;2024-03-22T10:28:27;8.02;;;4.28;;
25531;SDS011;13429;48.816;9.118;2024-03-22T10:30:52;6.60;;;4.30;;
25531;SDS011;13429;48.816;9.118;2024-03-22T10:33:19;8.32;;;4.03;;
25531;SDS011;13429;48.816;9.118;2024-03-22T10:35:50;10.32;;;5.70;;
25531;SDS011;13429;48.816;9.118;2024-03-22T10:38:18;8.15;;;5.00;;
25531;SDS011;13429;48.816;9.118;2024-03-22T10:40:45;8.52;;;5.70;;
25531;SDS011;13429;48.816;9.118;2024-03-22T10:43:15;10.20;;;5.97;;
25531;SDS011;13429;48.816;9.118;2024-03-22T10:45:41;10.80;;;5.40;;
25531;SDS011;13429;48.816;9.118;2024-03-22T10:48:11;13.25;;;6.75;;
25531;SDS011;13429;48.816;9.118;2024-03-22T10:50:40;6.22;;;4.65;;
25531;SDS011;13429;48.816;9.118;2024-03-22T10:53:13;6.43;;;5.20;;
25531;SDS011;13429;48.816;9.118;2024-03-22T10:55:43;7.00;;;5.25;;
25531;SDS011;13429;48.816;9.118;2024-03-22T10:58:17;10.43;;;6.13;;
25531;SDS011;13429;48.816;9.118;2024-03-22T11:00:46;8.50;;;5.28;;
25531;SDS011;13429;48.816;9.118;2024-03-22T11:03:15;8.82;;;5.43;;
25531;SDS011;13429;48.816;9.118;2024-03-22T11:05:47;9.05;;;5.35;;
25531;SDS011;13429;48.816;9.118;2024-03-22T11:08:22;8.15;;;4.68;;
25531;SDS011;13429;48.816;9.118;2024-03-22T11:10:49;8.43;;;5.50;;
25531;SDS011;13429;48.816;9.118;2024-03-22T11:13:15;7.57;;;5.13;;
25531;SDS011;13429;48.816;9.118;2024-03-22T11:15:42;7.32;;;4.68;;
25531;SDS011;13429;48.816;9.118;2024-03-22T11:18:08;9.95;;;5.63;;
25531;SDS011;13429;48.816;9.118;2024-03-22T11:20:37;10.20;;;5.75;;
25531;SDS011;13429;48.816;9.118;2024-03-22T11:23:03;11.70;;;5.35;;
25531;SDS011;13429;48.816;9.118;2024-03-22T11:25:33;7.07;;;4.85;;
25531;SDS011;13429;48.816;9.118;2024-03-22T11:28:00;8.32;;;5.15;;
25531;SDS011;13429;48.816;9.118;2024-03-22T11:30:30;5.93;;;5.13;;
25531;SDS011;13429;48.816;9.118;2024-03-22T11:33:00;6.22;;;4.10;;
25531;SDS011;13429;48.816;9.118;2024-03-22T11:35:26;5.00;;;3.83;;
25531;SDS011;13429;48.816;9.118;2024-03-22T11:37:52;6.80;;;3.67;;
25531;SDS011;13429;48.816;9.118;2024-03-22T11:40:18;6.72;;;3.45;;
25531;SDS011;13429;48.816;9.118;2024-03-22T11:42:46;4.82;;;2.78;;
25531;SDS011;13429;48.816;9.118;2024-03-22T11:45:14;6.82;;;3.03;;
25531;SDS011;13429;48.816;9.118;2024-03-22T11:47:42;5.20;;;2.92;;
25531;SDS011;13429;48.816;9.118;2024-03-22T11:50:09;7.40;;;3.05;;
25531;SDS011;13429;48.816;9.118;2024-03-22T11:52:39;5.30;;;2.90;;
25531;SDS011;13429;48.816;9.118;2024-03-22T11:55:09;5.07;;;3.40;;
25531;SDS011;13429;48.816;9.118;2024-03-22T11:57:35;4.28;;;2.67;;
25531;SDS011;13429;48.816;9.118;2024-03-22T12:00:02;7.03;;;3.30;;
25531;SDS011;13429;48.816;9.118;2024-03-22T12:02:33;6.85;;;2.90;;
25531;SDS011;13429;48.816;9.118;2024-03-22T12:05:01;4.40;;;2.40;;
25531;SDS011;13429;48.816;9.118;2024-03-22T12:07:27;6.18;;;2.92;;
25531;SDS011;13429;48.816;9.118;2024-03-22T12:09:53;6.30;;;3.10;;
25531;SDS011;13429;48.816;9.118;2024-03-22T12:12:20;6.05;;;2.90;;
25531;SDS011;13429;48.816;9.118;2024-03-22T12:14:47;13.23;;;9.45;;
25531;SDS011;13429;48.816;9.118;2024-03-22T12:17:16;9.15;;;4.45;;
25531;SDS011;13429;48.816;9.118;2024-03-22T12:19:41;4.18;;;3.05;;
25531;SDS011;13429;48.816;9.118;2024-03-22T12:22:07;3.33;;;2.80;;
25531;SDS011;13429;48.816;9.118;2024-03-22T12:24:33;6.63;;;3.03;;
25531;SDS011;13429;48.816;9.118;2024-03-22T12:26:58;4.55;;;2.85;;
25531;SDS011;13429;48.816;9.118;2024-03-22T12:29:24;6.32;;;3.80;;
25531;SDS011;13429;48.816;9.118;2024-03-22T12:31:50;6.40;;;3.80;;
25531;SDS011;13429;48.816;9.118;2024-03-22T12:34:15;7.72;;;3.10;;
25531;SDS011;13429;48.816;9.118;2024-03-22T12:36:41;5.50;;;3.45;;
25531;SDS011;13429;48.816;9.118;2024-03-22T12:39:07;8.70;;;3.45;;
25531;SDS011;13429;48.816;9.118;2024-03-22T12:41:33;7.63;;;3.28;;
25531;SDS011;13429;48.816;9.118;2024-03-22T12:44:00;4.63;;;3.50;;
25531;SDS011;13429;48.816;9.118;2024-03-22T12:46:26;6.07;;;3.38;;
25531;SDS011;13429;48.816;9.118;2024-03-22T12:48:55;7.22;;;3.10;;
25531;SDS011;13429;48.816;9.118;2024-03-22T12:51:20;4.95;;;2.67;;
25531;SDS011;13429;48.816;9.118;2024-03-22T12:53:46;6.82;;;2.78;;
25531;SDS011;13429;48.816;9.118;2024-03-22T12:56:12;4.50;;;2.78;;
25531;SDS011;13429;48.816;9.118;2024-03-22T12:58:38;5.25;;;2.90;;
25531;SDS011;13429;48.816;9.118;2024-03-22T13:01:08;5.75;;;3.00;;
25531;SDS011;13429;48.816;9.118;2024-03-22T13:03:35;7.18;;;4.22;;
25531;SDS011;13429;48.816;9.118;2024-03-22T13:06:02;7.97;;;3.30;;
25531;SDS011;13429;48.816;9.118;2024-03-22T13:08:30;3.90;;;2.63;;
25531;SDS011;13429;48.816;9.118;2024-03-22T13:10:58;6.38;;;3.55;;
25531;SDS011;13429;48.816;9.118;2024-03-22T13:13:24;4.35;;;2.58;;
25531;SDS011;13429;48.816;9.118;2024-03-22T13:15:50;6.93;;;2.80;;
25531;SDS011;13429;48.816;9.118;2024-03-22T13:18:15;4.93;;;2.90;;
25531;SDS011;13429;48.816;9.118;2024-03-22T13:20:41;6.32;;;2.90;;
25531;SDS011;13429;48.816;9.118;2024-03-22T13:23:07;5.63;;;2.95;;
25531;SDS011;13429;48.816;9.118;2024-03-22T13:25:34;5.15;;;2.38;;
25531;SDS011;13429;48.816;9.118;2024-03-22T13:28:02;4.28;;;2.42;;
25531;SDS011;13429;48.816;9.118;2024-03-22T13:30:28;3.47;;;2.38;;
25531;SDS011;13429;48.816;9.118;2024-03-22T13:32:54;3.90;;;2.67;;
25531;SDS011;13429;48.816;9.118;2024-03-22T13:35:19;6.30;;;2.65;;
25531;SDS011;13429;48.816;9.118;2024-03-22T13:37:45;7.07;;;2.85;;
25531;SDS011;13429;48.816;9.118;2024-03-22T13:40:11;5.10;;;2.10;;
25531;SDS011;13429;48.816;9.118;2024-03-22T13:42:37;5.18;;;2.47;;
25531;SDS011;13429;48.816;9.118;2024-03-22T13:45:02;3.70;;;2.30;;
25531;SDS011;13429;48.816;9.118;2024-03-22T13:47:28;5.95;;;2.70;;
25531;SDS011;13429;48.816;9.118;2024-03-22T13:49:54;5.75;;;2.38;;
25531;SDS011;13429;48.816;9.118;2024-03-22T13:52:20;6.05;;;2.78;;
25531;SDS011;13429;48.816;9.118;2024-03-22T13:54:46;4.75;;;2.60;;
25531;SDS011;13429;48.816;9.118;2024-03-22T13:57:12;8.07;;;3.10;;
25531;SDS011;13429;48.816;9.118;2024-03-22T13:59:38;6.60;;;3.40;;
25531;SDS011;13429;48.816;9.118;2024-03-22T14:02:05;6.07;;;3.45;;
25531;SDS011;13429;48.816;9.118;2024-03-22T14:04:32;5.35;;;3.45;;
25531;SDS011;13429;48.816;9.118;2024-03-22T14:06:58;8.30;;;3.92;;
25531;SDS011;13429;48.816;9.118;2024-03-22T14:09:24;4.65;;;2.97;;
25531;SDS011;13429;48.816;9.118;2024-03-22T14:11:51;6.10;;;3.15;;
25531;SDS011;13429;48.816;9.118;2024-03-22T14:14:16;4.75;;;2.45;;
25531;SDS011;13429;48.816;9.118;2024-03-22T14:16:42;4.80;;;2.70;;
25531;SDS011;13429;48.816;9.118;2024-03-22T14:19:08;5.45;;;2.80;;
25531;SDS011;13429;48.816;9.118;2024-03-22T14:21:33;6.88;;;2.40;;
25531;SDS011;13429;48.816;9.118;2024-03-22T14:23:59;5.05;;;1.85;;
25531;SDS011;13429;48.816;9.118;2024-03-22T14:26:25;4.07;;;1.85;;